Overview Statistics Trail Chart Weather Telemetry Raw packets
 

This is the latest recevied weather packets stored in our database for station/object 1NW106. If no packets are shown the sender has not sent any weather packets the latest 10 day(s).

<< 8 9 10 11 12 13 14 >>
Time Temp. Humidity Pressure Rain* Wind** Luminosity Snow
1788339707 30.56° C 80% 1008.5 hPa 2.79 mm - - -
1788339107 30.56° C 77% 1008.6 hPa 2.79 mm - - -
1788337907 31.11° C 78% 1008.8 hPa 2.79 mm - - -
1788337308 31.11° C 75% 1008.9 hPa 2.79 mm - - -
1788336707 30° C 81% 1008.7 hPa 2.79 mm - - -
1788336107 29.44° C 83% 1008.7 hPa 2.79 mm - - -
1788335507 29.44° C 81% 1009 hPa 2.79 mm - - -
1788334907 30° C 81% 1009.2 hPa 2.79 mm - - -
1788334307 30° C 81% 1009.5 hPa 2.79 mm - - -
1788333707 30° C 80% 1009.8 hPa 2.79 mm - - -
1788333107 30° C 79% 1010 hPa 2.79 mm - - -
1788332507 30.56° C 79% 1010.3 hPa 2.79 mm - - -
1788331907 30.56° C 80% 1010.4 hPa 2.79 mm - - -
1788331307 29.44° C 84% 1010.3 hPa 2.79 mm - - -
1788330707 28.89° C 84% 1010.4 hPa 2.79 mm - - -
1788330107 28.89° C 87% 1010.3 hPa 2.79 mm - - -
1788329507 28.33° C 91% 1010.1 hPa 2.79 mm - - -
1788328907 28.33° C 92% 1010.2 hPa 2.79 mm - - -
1788328307 27.78° C 94% 1010 hPa 2.79 mm - - -
1788327707 27.78° C 95% 1010 hPa 2.79 mm - - -
1788327107 27.78° C 96% 1010.1 hPa 2.79 mm - - -
1788326507 27.78° C 95% 1010.3 hPa 2.79 mm - - -
1788325907 27.78° C 95% 1010.3 hPa 2.79 mm - - -
1788325307 27.78° C 95% 1010.3 hPa 2.79 mm - - -
1788324707 27.78° C 94% 1010.6 hPa 2.79 mm - - -

* Rain latest hour (hover to see other rain measurements)
** Current wind speed in m/s (hover to see current wind gust speed)